sensor_id;sensor_type;location;lat;lon;timestamp;temperature;humidity
47521;DHT22;32291;52.010;4.446;2023-06-04T00:00:46;13.30;99.90
47521;DHT22;32291;52.010;4.446;2023-06-04T00:01:48;13.30;99.90
47521;DHT22;32291;52.010;4.446;2023-06-04T00:02:53;13.30;99.90
47521;DHT22;32291;52.010;4.446;2023-06-04T00:03:54;13.30;99.90
47521;DHT22;32291;52.010;4.446;2023-06-04T00:04:56;13.30;99.90
47521;DHT22;32291;52.010;4.446;2023-06-04T00:05:58;13.20;99.90
47521;DHT22;32291;52.010;4.446;2023-06-04T00:06:59;13.20;99.90
47521;DHT22;32291;52.010;4.446;2023-06-04T00:08:01;13.20;99.90
47521;DHT22;32291;52.010;4.446;2023-06-04T00:09:03;13.10;99.90
47521;DHT22;32291;52.010;4.446;2023-06-04T00:10:05;13.10;99.90
47521;DHT22;32291;52.010;4.446;2023-06-04T00:11:07;13.10;99.90
47521;DHT22;32291;52.010;4.446;2023-06-04T00:12:09;13.10;99.90
47521;DHT22;32291;52.010;4.446;2023-06-04T00:13:11;13.10;99.90
47521;DHT22;32291;52.010;4.446;2023-06-04T00:14:14;13.10;99.90
47521;DHT22;32291;52.010;4.446;2023-06-04T00:15:16;13.10;99.90
47521;DHT22;32291;52.010;4.446;2023-06-04T00:16:19;13.10;99.90
47521;DHT22;32291;52.010;4.446;2023-06-04T00:17:20;13.00;99.90
47521;DHT22;32291;52.010;4.446;2023-06-04T00:18:22;13.00;99.90
47521;DHT22;32291;52.010;4.446;2023-06-04T00:19:23;13.00;99.90
47521;DHT22;32291;52.010;4.446;2023-06-04T00:20:25;13.00;99.90
47521;DHT22;32291;52.010;4.446;2023-06-04T00:21:28;13.00;99.90
47521;DHT22;32291;52.010;4.446;2023-06-04T00:22:30;13.00;99.90
47521;DHT22;32291;52.010;4.446;2023-06-04T00:23:32;13.00;99.90
47521;DHT22;32291;52.010;4.446;2023-06-04T00:24:36;13.00;99.90
47521;DHT22;32291;52.010;4.446;2023-06-04T00:25:39;13.00;99.90
47521;DHT22;32291;52.010;4.446;2023-06-04T00:26:40;12.90;99.90
47521;DHT22;32291;52.010;4.446;2023-06-04T00:27:43;12.90;99.90
47521;DHT22;32291;52.010;4.446;2023-06-04T00:28:46;13.00;99.90
47521;DHT22;32291;52.010;4.446;2023-06-04T00:29:47;13.00;99.90
47521;DHT22;32291;52.010;4.446;2023-06-04T00:30:51;12.90;99.90
47521;DHT22;32291;52.010;4.446;2023-06-04T00:31:52;12.90;99.90
47521;DHT22;32291;52.010;4.446;2023-06-04T00:32:54;13.00;99.90
47521;DHT22;32291;52.010;4.446;2023-06-04T00:33:56;12.90;99.90
47521;DHT22;32291;52.010;4.446;2023-06-04T00:34:58;13.00;99.90
47521;DHT22;32291;52.010;4.446;2023-06-04T00:36:00;12.90;99.90
47521;DHT22;32291;52.010;4.446;2023-06-04T00:37:02;12.90;99.90
47521;DHT22;32291;52.010;4.446;2023-06-04T00:38:04;12.90;99.90
47521;DHT22;32291;52.010;4.446;2023-06-04T00:39:06;12.90;99.90
47521;DHT22;32291;52.010;4.446;2023-06-04T00:40:08;12.90;99.90
47521;DHT22;32291;52.010;4.446;2023-06-04T00:41:10;12.90;99.90
47521;DHT22;32291;52.010;4.446;2023-06-04T00:42:11;12.90;99.90
47521;DHT22;32291;52.010;4.446;2023-06-04T00:43:13;12.90;99.90
47521;DHT22;32291;52.010;4.446;2023-06-04T00:44:15;12.80;99.90
47521;DHT22;32291;52.010;4.446;2023-06-04T00:45:17;12.80;99.90
47521;DHT22;32291;52.010;4.446;2023-06-04T00:46:24;12.80;99.90
47521;DHT22;32291;52.010;4.446;2023-06-04T00:47:26;12.80;99.90
47521;DHT22;32291;52.010;4.446;2023-06-04T00:48:28;12.80;99.90
47521;DHT22;32291;52.010;4.446;2023-06-04T00:49:31;12.80;99.90
47521;DHT22;32291;52.010;4.446;2023-06-04T00:50:33;12.80;99.90
47521;DHT22;32291;52.010;4.446;2023-06-04T00:51:36;12.80;99.90
47521;DHT22;32291;52.010;4.446;2023-06-04T00:52:39;12.70;99.90
47521;DHT22;32291;52.010;4.446;2023-06-04T00:53:41;12.70;99.90
47521;DHT22;32291;52.010;4.446;2023-06-04T00:54:43;12.70;99.90
47521;DHT22;32291;52.010;4.446;2023-06-04T00:55:45;12.70;99.90
47521;DHT22;32291;52.010;4.446;2023-06-04T00:56:47;12.70;99.90
47521;DHT22;32291;52.010;4.446;2023-06-04T00:57:52;12.70;99.90
47521;DHT22;32291;52.010;4.446;2023-06-04T00:58:54;12.60;99.90
47521;DHT22;32291;52.010;4.446;2023-06-04T00:59:56;12.60;99.90
47521;DHT22;32291;52.010;4.446;2023-06-04T01:01:00;12.60;99.90
47521;DHT22;32291;52.010;4.446;2023-06-04T01:02:20;12.60;99.90
47521;DHT22;32291;52.010;4.446;2023-06-04T01:03:25;12.60;99.90
47521;DHT22;32291;52.010;4.446;2023-06-04T01:06:13;12.60;99.90
47521;DHT22;32291;52.010;4.446;2023-06-04T01:07:26;12.60;99.90
47521;DHT22;32291;52.010;4.446;2023-06-04T01:08:32;12.60;99.90
47521;DHT22;32291;52.010;4.446;2023-06-04T01:09:36;12.50;99.90
47521;DHT22;32291;52.010;4.446;2023-06-04T01:10:53;12.50;99.90
47521;DHT22;32291;52.010;4.446;2023-06-04T01:11:57;12.50;99.90
47521;DHT22;32291;52.010;4.446;2023-06-04T01:13:00;12.50;99.90
47521;DHT22;32291;52.010;4.446;2023-06-04T01:14:03;12.50;99.90
47521;DHT22;32291;52.010;4.446;2023-06-04T01:15:07;12.50;99.90
47521;DHT22;32291;52.010;4.446;2023-06-04T01:16:10;12.50;99.90
47521;DHT22;32291;52.010;4.446;2023-06-04T01:17:30;12.50;99.90
47521;DHT22;32291;52.010;4.446;2023-06-04T01:18:39;12.40;99.90
47521;DHT22;32291;52.010;4.446;2023-06-04T01:19:54;12.40;99.90
47521;DHT22;32291;52.010;4.446;2023-06-04T01:21:08;12.40;99.90
47521;DHT22;32291;52.010;4.446;2023-06-04T01:24:05;12.30;99.90
47521;DHT22;32291;52.010;4.446;2023-06-04T01:25:21;12.30;99.90
47521;DHT22;32291;52.010;4.446;2023-06-04T01:26:32;12.30;99.90
47521;DHT22;32291;52.010;4.446;2023-06-04T01:27:34;12.20;99.90
47521;DHT22;32291;52.010;4.446;2023-06-04T01:28:37;12.20;99.90
47521;DHT22;32291;52.010;4.446;2023-06-04T01:29:40;12.20;99.90
47521;DHT22;32291;52.010;4.446;2023-06-04T01:30:45;12.20;99.90
47521;DHT22;32291;52.010;4.446;2023-06-04T01:31:51;12.20;99.90
47521;DHT22;32291;52.010;4.446;2023-06-04T01:32:56;12.20;99.90
47521;DHT22;32291;52.010;4.446;2023-06-04T01:33:58;12.10;99.90
47521;DHT22;32291;52.010;4.446;2023-06-04T01:35:00;12.10;99.90
47521;DHT22;32291;52.010;4.446;2023-06-04T01:36:03;12.10;99.90
47521;DHT22;32291;52.010;4.446;2023-06-04T01:37:05;12.10;99.90
47521;DHT22;32291;52.010;4.446;2023-06-04T01:38:07;12.10;99.90
47521;DHT22;32291;52.010;4.446;2023-06-04T01:39:09;11.90;99.90
47521;DHT22;32291;52.010;4.446;2023-06-04T01:40:11;12.10;99.90
47521;DHT22;32291;52.010;4.446;2023-06-04T01:41:13;12.10;99.90
47521;DHT22;32291;52.010;4.446;2023-06-04T01:42:15;12.00;99.90
47521;DHT22;32291;52.010;4.446;2023-06-04T01:43:17;12.00;99.90
47521;DHT22;32291;52.010;4.446;2023-06-04T01:44:19;12.00;99.90
47521;DHT22;32291;52.010;4.446;2023-06-04T01:45:22;12.00;99.90
47521;DHT22;32291;52.010;4.446;2023-06-04T01:46:24;12.00;99.90
47521;DHT22;32291;52.010;4.446;2023-06-04T01:47:26;12.00;99.90
47521;DHT22;32291;52.010;4.446;2023-06-04T01:48:28;12.00;99.90
47521;DHT22;32291;52.010;4.446;2023-06-04T01:49:29;12.00;99.90
47521;DHT22;32291;52.010;4.446;2023-06-04T01:50:32;12.00;99.90
47521;DHT22;32291;52.010;4.446;2023-06-04T01:51:33;12.00;99.90
47521;DHT22;32291;52.010;4.446;2023-06-04T01:52:36;11.90;99.90
47521;DHT22;32291;52.010;4.446;2023-06-04T01:53:38;11.90;99.90
47521;DHT22;32291;52.010;4.446;2023-06-04T01:54:40;11.90;99.90
47521;DHT22;32291;52.010;4.446;2023-06-04T01:55:42;12.00;99.90
47521;DHT22;32291;52.010;4.446;2023-06-04T01:56:44;11.90;99.90
47521;DHT22;32291;52.010;4.446;2023-06-04T01:57:46;11.90;99.90
47521;DHT22;32291;52.010;4.446;2023-06-04T01:58:54;11.90;99.90
47521;DHT22;32291;52.010;4.446;2023-06-04T01:59:56;11.90;99.90
47521;DHT22;32291;52.010;4.446;2023-06-04T02:00:58;11.90;99.90
47521;DHT22;32291;52.010;4.446;2023-06-04T02:02:01;11.90;99.90
47521;DHT22;32291;52.010;4.446;2023-06-04T02:03:03;11.90;99.90
47521;DHT22;32291;52.010;4.446;2023-06-04T02:04:05;12.00;99.90
47521;DHT22;32291;52.010;4.446;2023-06-04T02:05:07;11.90;99.90
47521;DHT22;32291;52.010;4.446;2023-06-04T02:06:10;11.90;99.90
47521;DHT22;32291;52.010;4.446;2023-06-04T02:07:12;11.90;99.90
47521;DHT22;32291;52.010;4.446;2023-06-04T02:08:18;11.90;99.90
47521;DHT22;32291;52.010;4.446;2023-06-04T02:09:23;11.90;99.90
47521;DHT22;32291;52.010;4.446;2023-06-04T02:10:25;11.90;99.90
47521;DHT22;32291;52.010;4.446;2023-06-04T02:11:27;11.80;99.90
47521;DHT22;32291;52.010;4.446;2023-06-04T02:12:28;11.80;99.90
47521;DHT22;32291;52.010;4.446;2023-06-04T02:13:30;11.90;99.90
47521;DHT22;32291;52.010;4.446;2023-06-04T02:14:32;11.80;99.90
47521;DHT22;32291;52.010;4.446;2023-06-04T02:15:33;11.80;99.90
47521;DHT22;32291;52.010;4.446;2023-06-04T02:16:35;11.80;99.90
47521;DHT22;32291;52.010;4.446;2023-06-04T02:17:37;11.80;99.90
47521;DHT22;32291;52.010;4.446;2023-06-04T02:18:41;11.70;99.90
47521;DHT22;32291;52.010;4.446;2023-06-04T02:19:43;11.70;99.90
47521;DHT22;32291;52.010;4.446;2023-06-04T02:20:47;11.70;99.90
47521;DHT22;32291;52.010;4.446;2023-06-04T02:21:51;11.70;99.90
47521;DHT22;32291;52.010;4.446;2023-06-04T02:22:55;11.70;99.90
47521;DHT22;32291;52.010;4.446;2023-06-04T02:23:57;11.70;99.90
47521;DHT22;32291;52.010;4.446;2023-06-04T02:24:58;11.70;99.90
47521;DHT22;32291;52.010;4.446;2023-06-04T02:26:00;11.60;99.90
47521;DHT22;32291;52.010;4.446;2023-06-04T02:27:05;11.60;99.90
47521;DHT22;32291;52.010;4.446;2023-06-04T02:28:08;11.60;99.90
47521;DHT22;32291;52.010;4.446;2023-06-04T02:29:10;11.60;99.90
47521;DHT22;32291;52.010;4.446;2023-06-04T02:30:12;11.60;99.90
47521;DHT22;32291;52.010;4.446;2023-06-04T02:31:14;11.60;99.90
47521;DHT22;32291;52.010;4.446;2023-06-04T02:32:16;11.60;99.90
47521;DHT22;32291;52.010;4.446;2023-06-04T02:33:19;11.50;99.90
47521;DHT22;32291;52.010;4.446;2023-06-04T02:34:23;11.60;99.90
47521;DHT22;32291;52.010;4.446;2023-06-04T02:35:29;11.50;99.90
47521;DHT22;32291;52.010;4.446;2023-06-04T02:36:32;11.50;99.90
47521;DHT22;32291;52.010;4.446;2023-06-04T02:37:33;11.40;99.90
47521;DHT22;32291;52.010;4.446;2023-06-04T02:38:35;11.50;99.90
47521;DHT22;32291;52.010;4.446;2023-06-04T02:39:37;11.50;99.90
47521;DHT22;32291;52.010;4.446;2023-06-04T02:40:39;11.40;99.90
47521;DHT22;32291;52.010;4.446;2023-06-04T02:41:41;11.50;99.90
47521;DHT22;32291;52.010;4.446;2023-06-04T02:42:43;11.40;99.90
47521;DHT22;32291;52.010;4.446;2023-06-04T02:43:45;11.40;99.90
47521;DHT22;32291;52.010;4.446;2023-06-04T02:44:47;11.40;99.90
47521;DHT22;32291;52.010;4.446;2023-06-04T02:45:49;11.40;99.90
47521;DHT22;32291;52.010;4.446;2023-06-04T02:46:59;11.40;99.90
47521;DHT22;32291;52.010;4.446;2023-06-04T02:48:03;11.30;99.90
47521;DHT22;32291;52.010;4.446;2023-06-04T02:49:05;11.30;99.90
47521;DHT22;32291;52.010;4.446;2023-06-04T02:50:07;11.30;99.90
47521;DHT22;32291;52.010;4.446;2023-06-04T02:51:09;11.30;99.90
47521;DHT22;32291;52.010;4.446;2023-06-04T02:52:12;11.20;99.90
47521;DHT22;32291;52.010;4.446;2023-06-04T02:53:14;11.30;99.90
47521;DHT22;32291;52.010;4.446;2023-06-04T02:54:16;11.20;99.90
47521;DHT22;32291;52.010;4.446;2023-06-04T02:55:18;11.20;99.90
47521;DHT22;32291;52.010;4.446;2023-06-04T02:56:23;11.20;99.90
47521;DHT22;32291;52.010;4.446;2023-06-04T02:57:26;11.30;99.90
47521;DHT22;32291;52.010;4.446;2023-06-04T02:58:27;11.10;99.90
47521;DHT22;32291;52.010;4.446;2023-06-04T02:59:30;11.10;99.90
47521;DHT22;32291;52.010;4.446;2023-06-04T03:00:35;11.10;99.90
47521;DHT22;32291;52.010;4.446;2023-06-04T03:01:37;11.20;99.90
47521;DHT22;32291;52.010;4.446;2023-06-04T03:02:44;11.20;99.90
47521;DHT22;32291;52.010;4.446;2023-06-04T03:03:48;11.10;99.90
47521;DHT22;32291;52.010;4.446;2023-06-04T03:04:51;11.10;99.90
47521;DHT22;32291;52.010;4.446;2023-06-04T03:05:53;11.10;99.90
47521;DHT22;32291;52.010;4.446;2023-06-04T03:06:55;11.10;99.90
47521;DHT22;32291;52.010;4.446;2023-06-04T03:08:01;11.10;99.90
47521;DHT22;32291;52.010;4.446;2023-06-04T03:09:04;11.10;99.90
47521;DHT22;32291;52.010;4.446;2023-06-04T03:10:07;11.10;99.90
47521;DHT22;32291;52.010;4.446;2023-06-04T03:11:09;11.00;99.90
47521;DHT22;32291;52.010;4.446;2023-06-04T03:12:12;11.00;99.90
47521;DHT22;32291;52.010;4.446;2023-06-04T03:13:13;11.00;99.90
47521;DHT22;32291;52.010;4.446;2023-06-04T03:14:16;11.00;99.90
47521;DHT22;32291;52.010;4.446;2023-06-04T03:15:19;11.00;99.90
47521;DHT22;32291;52.010;4.446;2023-06-04T03:16:21;10.90;99.90
47521;DHT22;32291;52.010;4.446;2023-06-04T03:17:23;11.00;99.90
47521;DHT22;32291;52.010;4.446;2023-06-04T03:18:24;10.90;99.90
47521;DHT22;32291;52.010;4.446;2023-06-04T03:19:27;10.90;99.90
47521;DHT22;32291;52.010;4.446;2023-06-04T03:20:29;10.90;99.90
47521;DHT22;32291;52.010;4.446;2023-06-04T03:21:30;10.90;99.90
47521;DHT22;32291;52.010;4.446;2023-06-04T03:22:33;10.90;99.90
47521;DHT22;32291;52.010;4.446;2023-06-04T03:23:36;10.90;99.90
47521;DHT22;32291;52.010;4.446;2023-06-04T03:24:40;10.90;99.90
47521;DHT22;32291;52.010;4.446;2023-06-04T03:25:42;10.90;99.90
47521;DHT22;32291;52.010;4.446;2023-06-04T03:26:44;10.90;99.90
47521;DHT22;32291;52.010;4.446;2023-06-04T03:27:46;10.90;99.90
47521;DHT22;32291;52.010;4.446;2023-06-04T03:28:47;10.90;99.90
47521;DHT22;32291;52.010;4.446;2023-06-04T03:29:49;10.90;99.90
47521;DHT22;32291;52.010;4.446;2023-06-04T03:30:52;10.90;99.90
47521;DHT22;32291;52.010;4.446;2023-06-04T03:31:53;10.90;99.90
47521;DHT22;32291;52.010;4.446;2023-06-04T03:32:55;10.80;99.90
47521;DHT22;32291;52.010;4.446;2023-06-04T03:33:57;10.80;99.90
47521;DHT22;32291;52.010;4.446;2023-06-04T03:34:59;10.80;99.90
47521;DHT22;32291;52.010;4.446;2023-06-04T03:36:01;10.80;99.90
47521;DHT22;32291;52.010;4.446;2023-06-04T03:37:04;10.80;99.90
47521;DHT22;32291;52.010;4.446;2023-06-04T03:38:07;10.80;99.90
47521;DHT22;32291;52.010;4.446;2023-06-04T03:39:09;10.70;99.90
47521;DHT22;32291;52.010;4.446;2023-06-04T03:40:12;10.70;99.90
47521;DHT22;32291;52.010;4.446;2023-06-04T03:41:14;10.70;99.90
47521;DHT22;32291;52.010;4.446;2023-06-04T03:42:16;10.90;99.90
47521;DHT22;32291;52.010;4.446;2023-06-04T03:43:18;10.70;99.90
47521;DHT22;32291;52.010;4.446;2023-06-04T03:44:22;10.70;99.90
47521;DHT22;32291;52.010;4.446;2023-06-04T03:45:24;10.70;99.90
47521;DHT22;32291;52.010;4.446;2023-06-04T03:46:26;10.70;99.90
47521;DHT22;32291;52.010;4.446;2023-06-04T03:47:30;10.70;99.90
47521;DHT22;32291;52.010;4.446;2023-06-04T03:48:32;10.70;99.90
47521;DHT22;32291;52.010;4.446;2023-06-04T03:49:34;10.70;99.90
47521;DHT22;32291;52.010;4.446;2023-06-04T03:50:35;10.70;99.90
47521;DHT22;32291;52.010;4.446;2023-06-04T03:51:38;10.70;99.90
47521;DHT22;32291;52.010;4.446;2023-06-04T03:52:40;10.80;99.90
47521;DHT22;32291;52.010;4.446;2023-06-04T03:53:41;10.80;99.90
47521;DHT22;32291;52.010;4.446;2023-06-04T03:54:43;10.80;99.90
47521;DHT22;32291;52.010;4.446;2023-06-04T03:55:46;10.80;99.90
47521;DHT22;32291;52.010;4.446;2023-06-04T03:56:48;10.90;99.90
47521;DHT22;32291;52.010;4.446;2023-06-04T03:57:51;10.90;99.90
47521;DHT22;32291;52.010;4.446;2023-06-04T03:58:53;10.90;99.90
47521;DHT22;32291;52.010;4.446;2023-06-04T03:59:55;10.90;99.90
47521;DHT22;32291;52.010;4.446;2023-06-04T04:00:56;10.90;99.90
47521;DHT22;32291;52.010;4.446;2023-06-04T04:02:00;10.90;99.90
47521;DHT22;32291;52.010;4.446;2023-06-04T04:03:02;11.00;99.90
47521;DHT22;32291;52.010;4.446;2023-06-04T04:04:05;11.00;99.90
47521;DHT22;32291;52.010;4.446;2023-06-04T04:05:07;11.00;99.90
47521;DHT22;32291;52.010;4.446;2023-06-04T04:06:10;11.00;99.90
47521;DHT22;32291;52.010;4.446;2023-06-04T04:07:12;11.00;99.90
47521;DHT22;32291;52.010;4.446;2023-06-04T04:08:14;11.10;99.90
47521;DHT22;32291;52.010;4.446;2023-06-04T04:09:17;11.10;99.90
47521;DHT22;32291;52.010;4.446;2023-06-04T04:10:20;11.10;99.90
47521;DHT22;32291;52.010;4.446;2023-06-04T04:11:22;11.20;99.90
47521;DHT22;32291;52.010;4.446;2023-06-04T04:12:24;11.20;99.90
47521;DHT22;32291;52.010;4.446;2023-06-04T04:13:25;11.20;99.90
47521;DHT22;32291;52.010;4.446;2023-06-04T04:14:27;11.20;99.90
47521;DHT22;32291;52.010;4.446;2023-06-04T04:15:29;11.20;99.90
47521;DHT22;32291;52.010;4.446;2023-06-04T04:16:31;11.20;99.90
47521;DHT22;32291;52.010;4.446;2023-06-04T04:17:32;11.30;99.90
47521;DHT22;32291;52.010;4.446;2023-06-04T04:18:35;11.20;99.90
47521;DHT22;32291;52.010;4.446;2023-06-04T04:19:37;11.30;99.90
47521;DHT22;32291;52.010;4.446;2023-06-04T04:20:39;11.30;99.90
47521;DHT22;32291;52.010;4.446;2023-06-04T04:21:41;11.30;99.90
47521;DHT22;32291;52.010;4.446;2023-06-04T04:22:43;11.30;99.90
47521;DHT22;32291;52.010;4.446;2023-06-04T04:23:45;11.40;99.90
47521;DHT22;32291;52.010;4.446;2023-06-04T04:24:46;11.30;99.90
47521;DHT22;32291;52.010;4.446;2023-06-04T04:25:48;11.40;99.90
47521;DHT22;32291;52.010;4.446;2023-06-04T04:26:51;11.40;99.90
47521;DHT22;32291;52.010;4.446;2023-06-04T04:27:54;11.40;99.90
47521;DHT22;32291;52.010;4.446;2023-06-04T04:28:57;11.40;99.90
47521;DHT22;32291;52.010;4.446;2023-06-04T04:29:59;11.40;99.90
47521;DHT22;32291;52.010;4.446;2023-06-04T04:31:04;11.40;99.90
47521;DHT22;32291;52.010;4.446;2023-06-04T04:32:06;11.40;99.90
47521;DHT22;32291;52.010;4.446;2023-06-04T04:33:12;11.50;99.90
47521;DHT22;32291;52.010;4.446;2023-06-04T04:34:17;11.50;99.90
47521;DHT22;32291;52.010;4.446;2023-06-04T04:35:22;11.60;99.90
47521;DHT22;32291;52.010;4.446;2023-06-04T04:36:24;11.60;99.90
47521;DHT22;32291;52.010;4.446;2023-06-04T04:37:27;11.60;99.90
47521;DHT22;32291;52.010;4.446;2023-06-04T04:38:28;11.60;99.90
47521;DHT22;32291;52.010;4.446;2023-06-04T04:39:35;11.70;99.90
47521;DHT22;32291;52.010;4.446;2023-06-04T04:40:38;11.70;99.90
47521;DHT22;32291;52.010;4.446;2023-06-04T04:41:39;11.80;99.90
47521;DHT22;32291;52.010;4.446;2023-06-04T04:42:41;11.80;99.90
47521;DHT22;32291;52.010;4.446;2023-06-04T04:43:43;11.80;99.90
47521;DHT22;32291;52.010;4.446;2023-06-04T04:44:45;11.80;99.90
47521;DHT22;32291;52.010;4.446;2023-06-04T04:45:49;11.90;99.90
47521;DHT22;32291;52.010;4.446;2023-06-04T04:46:53;11.90;99.90
47521;DHT22;32291;52.010;4.446;2023-06-04T04:47:55;11.90;99.90
47521;DHT22;32291;52.010;4.446;2023-06-04T04:48:57;11.90;99.90
47521;DHT22;32291;52.010;4.446;2023-06-04T04:49:59;12.00;99.90
47521;DHT22;32291;52.010;4.446;2023-06-04T04:51:01;12.00;99.90
47521;DHT22;32291;52.010;4.446;2023-06-04T04:52:04;12.10;99.90
47521;DHT22;32291;52.010;4.446;2023-06-04T04:53:06;12.10;99.90
47521;DHT22;32291;52.010;4.446;2023-06-04T04:54:08;12.10;99.90
47521;DHT22;32291;52.010;4.446;2023-06-04T04:55:10;12.10;99.90
47521;DHT22;32291;52.010;4.446;2023-06-04T04:56:13;12.10;99.90
47521;DHT22;32291;52.010;4.446;2023-06-04T04:57:15;12.10;99.90
47521;DHT22;32291;52.010;4.446;2023-06-04T04:58:18;12.20;99.90
47521;DHT22;32291;52.010;4.446;2023-06-04T04:59:21;12.20;99.90
47521;DHT22;32291;52.010;4.446;2023-06-04T05:00:23;12.20;99.90
47521;DHT22;32291;52.010;4.446;2023-06-04T05:01:25;12.20;99.90
47521;DHT22;32291;52.010;4.446;2023-06-04T05:02:26;12.30;99.90
47521;DHT22;32291;52.010;4.446;2023-06-04T05:03:28;12.30;99.90
47521;DHT22;32291;52.010;4.446;2023-06-04T05:04:31;12.30;99.90
47521;DHT22;32291;52.010;4.446;2023-06-04T05:05:33;12.30;99.90
47521;DHT22;32291;52.010;4.446;2023-06-04T05:06:36;12.40;99.90
47521;DHT22;32291;52.010;4.446;2023-06-04T05:07:38;12.40;99.90
47521;DHT22;32291;52.010;4.446;2023-06-04T05:08:40;12.40;99.90
47521;DHT22;32291;52.010;4.446;2023-06-04T05:09:44;12.50;99.90
47521;DHT22;32291;52.010;4.446;2023-06-04T05:10:46;12.50;99.90
47521;DHT22;32291;52.010;4.446;2023-06-04T05:11:48;12.60;99.90
47521;DHT22;32291;52.010;4.446;2023-06-04T05:12:55;12.60;99.90
47521;DHT22;32291;52.010;4.446;2023-06-04T05:13:58;12.70;99.90
47521;DHT22;32291;52.010;4.446;2023-06-04T05:14:59;12.70;99.90
47521;DHT22;32291;52.010;4.446;2023-06-04T05:16:03;12.70;99.90
47521;DHT22;32291;52.010;4.446;2023-06-04T05:17:08;12.70;99.90
47521;DHT22;32291;52.010;4.446;2023-06-04T05:18:12;12.80;99.90
47521;DHT22;32291;52.010;4.446;2023-06-04T05:19:15;12.80;99.90
47521;DHT22;32291;52.010;4.446;2023-06-04T05:20:19;12.80;99.90
47521;DHT22;32291;52.010;4.446;2023-06-04T05:21:24;12.80;99.90
47521;DHT22;32291;52.010;4.446;2023-06-04T05:22:26;12.90;99.90
47521;DHT22;32291;52.010;4.446;2023-06-04T05:23:30;12.90;99.90
47521;DHT22;32291;52.010;4.446;2023-06-04T05:24:33;12.90;99.90
47521;DHT22;32291;52.010;4.446;2023-06-04T05:25:35;13.00;99.90
47521;DHT22;32291;52.010;4.446;2023-06-04T05:26:38;13.00;99.90
47521;DHT22;32291;52.010;4.446;2023-06-04T05:27:40;13.00;99.90
47521;DHT22;32291;52.010;4.446;2023-06-04T05:28:42;13.10;99.90
47521;DHT22;32291;52.010;4.446;2023-06-04T05:29:45;13.10;99.90
47521;DHT22;32291;52.010;4.446;2023-06-04T05:30:48;13.10;99.90
47521;DHT22;32291;52.010;4.446;2023-06-04T05:31:50;13.20;99.90
47521;DHT22;32291;52.010;4.446;2023-06-04T05:32:52;13.20;99.90
47521;DHT22;32291;52.010;4.446;2023-06-04T05:33:54;13.20;99.90
47521;DHT22;32291;52.010;4.446;2023-06-04T05:34:57;13.20;99.90
47521;DHT22;32291;52.010;4.446;2023-06-04T05:35:59;13.30;99.90
47521;DHT22;32291;52.010;4.446;2023-06-04T05:37:04;13.30;99.90
47521;DHT22;32291;52.010;4.446;2023-06-04T05:38:11;13.40;99.90
47521;DHT22;32291;52.010;4.446;2023-06-04T05:39:18;13.40;99.90
47521;DHT22;32291;52.010;4.446;2023-06-04T05:40:25;13.40;99.90
47521;DHT22;32291;52.010;4.446;2023-06-04T05:41:27;13.40;99.90
47521;DHT22;32291;52.010;4.446;2023-06-04T05:42:29;13.40;99.90
47521;DHT22;32291;52.010;4.446;2023-06-04T05:43:30;13.50;99.90
47521;DHT22;32291;52.010;4.446;2023-06-04T05:44:32;13.50;99.90
47521;DHT22;32291;52.010;4.446;2023-06-04T05:45:35;13.50;99.90
47521;DHT22;32291;52.010;4.446;2023-06-04T05:46:36;13.50;99.90
47521;DHT22;32291;52.010;4.446;2023-06-04T05:47:38;13.60;99.90
47521;DHT22;32291;52.010;4.446;2023-06-04T05:48:42;13.60;99.90
47521;DHT22;32291;52.010;4.446;2023-06-04T05:49:44;13.70;99.90
47521;DHT22;32291;52.010;4.446;2023-06-04T05:50:46;13.70;99.90
47521;DHT22;32291;52.010;4.446;2023-06-04T05:51:49;13.80;99.90
47521;DHT22;32291;52.010;4.446;2023-06-04T05:52:57;13.80;99.90
47521;DHT22;32291;52.010;4.446;2023-06-04T05:53:59;13.80;99.90
47521;DHT22;32291;52.010;4.446;2023-06-04T05:55:00;13.90;99.90
47521;DHT22;32291;52.010;4.446;2023-06-04T05:56:02;13.80;99.90
47521;DHT22;32291;52.010;4.446;2023-06-04T05:57:05;13.90;99.90
47521;DHT22;32291;52.010;4.446;2023-06-04T05:58:07;13.90;99.90
47521;DHT22;32291;52.010;4.446;2023-06-04T05:59:09;14.00;99.90
47521;DHT22;32291;52.010;4.446;2023-06-04T06:00:11;14.00;99.90
47521;DHT22;32291;52.010;4.446;2023-06-04T06:01:14;14.10;99.90
47521;DHT22;32291;52.010;4.446;2023-06-04T06:02:16;14.10;99.90
47521;DHT22;32291;52.010;4.446;2023-06-04T06:03:18;14.10;99.90
47521;DHT22;32291;52.010;4.446;2023-06-04T06:04:21;14.20;99.90
47521;DHT22;32291;52.010;4.446;2023-06-04T06:05:23;14.20;99.90
47521;DHT22;32291;52.010;4.446;2023-06-04T06:06:25;14.30;99.90
47521;DHT22;32291;52.010;4.446;2023-06-04T06:07:27;14.30;99.90
47521;DHT22;32291;52.010;4.446;2023-06-04T06:08:30;14.30;99.90
47521;DHT22;32291;52.010;4.446;2023-06-04T06:09:32;14.30;99.90
47521;DHT22;32291;52.010;4.446;2023-06-04T06:10:34;14.30;99.90
47521;DHT22;32291;52.010;4.446;2023-06-04T06:11:36;14.40;99.90
47521;DHT22;32291;52.010;4.446;2023-06-04T06:12:38;14.40;99.90
47521;DHT22;32291;52.010;4.446;2023-06-04T06:13:41;14.40;99.90
47521;DHT22;32291;52.010;4.446;2023-06-04T06:14:46;14.50;99.90
47521;DHT22;32291;52.010;4.446;2023-06-04T06:15:48;14.60;99.90
47521;DHT22;32291;52.010;4.446;2023-06-04T06:16:53;14.60;99.90
47521;DHT22;32291;52.010;4.446;2023-06-04T06:17:55;14.70;99.90
47521;DHT22;32291;52.010;4.446;2023-06-04T06:18:56;14.70;99.90
47521;DHT22;32291;52.010;4.446;2023-06-04T06:20:04;14.70;99.90
47521;DHT22;32291;52.010;4.446;2023-06-04T06:21:09;14.80;99.90
47521;DHT22;32291;52.010;4.446;2023-06-04T06:22:11;14.80;99.90
47521;DHT22;32291;52.010;4.446;2023-06-04T06:23:15;14.90;99.90
47521;DHT22;32291;52.010;4.446;2023-06-04T06:24:17;14.90;99.90
47521;DHT22;32291;52.010;4.446;2023-06-04T06:25:19;14.90;99.90
47521;DHT22;32291;52.010;4.446;2023-06-04T06:26:24;14.90;99.90
47521;DHT22;32291;52.010;4.446;2023-06-04T06:27:26;14.90;99.90
47521;DHT22;32291;52.010;4.446;2023-06-04T06:28:28;15.10;99.90
47521;DHT22;32291;52.010;4.446;2023-06-04T06:29:30;15.10;99.90
47521;DHT22;32291;52.010;4.446;2023-06-04T06:30:33;15.20;99.90
47521;DHT22;32291;52.010;4.446;2023-06-04T06:31:34;15.20;99.90
47521;DHT22;32291;52.010;4.446;2023-06-04T06:32:37;15.20;99.90
47521;DHT22;32291;52.010;4.446;2023-06-04T06:33:39;15.30;99.90
47521;DHT22;32291;52.010;4.446;2023-06-04T06:34:42;15.40;99.90
47521;DHT22;32291;52.010;4.446;2023-06-04T06:35:44;15.50;99.90
47521;DHT22;32291;52.010;4.446;2023-06-04T06:36:47;15.50;99.90
47521;DHT22;32291;52.010;4.446;2023-06-04T06:37:49;15.60;99.90
47521;DHT22;32291;52.010;4.446;2023-06-04T06:38:53;15.90;99.90
47521;DHT22;32291;52.010;4.446;2023-06-04T06:39:56;16.50;99.90
47521;DHT22;32291;52.010;4.446;2023-06-04T06:40:59;17.00;99.90